sensor_id;sensor_type;location;lat;lon;timestamp;temperature;humidity
17659;DHT22;8948;51.534;8.262;2023-04-01T00:02:21;10.30;75.00
17659;DHT22;8948;51.534;8.262;2023-04-01T00:07:21;10.40;74.50
17659;DHT22;8948;51.534;8.262;2023-04-01T00:12:22;10.30;75.00
17659;DHT22;8948;51.534;8.262;2023-04-01T00:17:25;10.30;74.80
17659;DHT22;8948;51.534;8.262;2023-04-01T00:22:26;10.30;74.20
17659;DHT22;8948;51.534;8.262;2023-04-01T00:27:27;10.30;74.60
17659;DHT22;8948;51.534;8.262;2023-04-01T00:32:27;10.30;73.70
17659;DHT22;8948;51.534;8.262;2023-04-01T00:37:29;10.30;73.70
17659;DHT22;8948;51.534;8.262;2023-04-01T00:42:30;10.30;74.00
17659;DHT22;8948;51.534;8.262;2023-04-01T00:47:30;10.20;74.40
17659;DHT22;8948;51.534;8.262;2023-04-01T00:52:31;10.20;74.50
17659;DHT22;8948;51.534;8.262;2023-04-01T00:57:35;10.20;74.30
17659;DHT22;8948;51.534;8.262;2023-04-01T01:02:37;10.20;74.40
17659;DHT22;8948;51.534;8.262;2023-04-01T01:07:52;10.20;75.00
17659;DHT22;8948;51.534;8.262;2023-04-01T01:18:35;10.10;74.50
17659;DHT22;8948;51.534;8.262;2023-04-01T01:40:04;10.20;74.00
17659;DHT22;8948;51.534;8.262;2023-04-01T01:45:08;10.20;73.60
17659;DHT22;8948;51.534;8.262;2023-04-01T01:50:10;10.20;73.80
17659;DHT22;8948;51.534;8.262;2023-04-01T01:55:33;10.10;74.10
17659;DHT22;8948;51.534;8.262;2023-04-01T02:00:34;10.20;74.10
17659;DHT22;8948;51.534;8.262;2023-04-01T02:05:36;10.10;73.70
17659;DHT22;8948;51.534;8.262;2023-04-01T02:10:41;10.10;73.70
17659;DHT22;8948;51.534;8.262;2023-04-01T02:15:46;10.20;73.70
17659;DHT22;8948;51.534;8.262;2023-04-01T02:20:48;10.20;74.10
17659;DHT22;8948;51.534;8.262;2023-04-01T02:25:49;10.20;73.70
17659;DHT22;8948;51.534;8.262;2023-04-01T02:30:51;10.20;73.60
17659;DHT22;8948;51.534;8.262;2023-04-01T02:35:52;10.20;73.90
17659;DHT22;8948;51.534;8.262;2023-04-01T02:40:59;10.20;73.50
17659;DHT22;8948;51.534;8.262;2023-04-01T02:46:00;10.20;73.40
17659;DHT22;8948;51.534;8.262;2023-04-01T02:51:02;10.30;73.90
17659;DHT22;8948;51.534;8.262;2023-04-01T02:56:03;10.30;74.10
17659;DHT22;8948;51.534;8.262;2023-04-01T03:01:03;10.40;74.20
17659;DHT22;8948;51.534;8.262;2023-04-01T03:06:08;10.30;73.80
17659;DHT22;8948;51.534;8.262;2023-04-01T03:11:10;10.20;74.00
17659;DHT22;8948;51.534;8.262;2023-04-01T03:16:11;10.10;74.30
17659;DHT22;8948;51.534;8.262;2023-04-01T03:21:16;10.10;74.40
17659;DHT22;8948;51.534;8.262;2023-04-01T03:26:17;10.10;74.40
17659;DHT22;8948;51.534;8.262;2023-04-01T03:31:18;10.00;74.90
17659;DHT22;8948;51.534;8.262;2023-04-01T03:36:19;10.10;74.70
17659;DHT22;8948;51.534;8.262;2023-04-01T03:41:20;10.10;74.60
17659;DHT22;8948;51.534;8.262;2023-04-01T03:46:21;10.00;74.70
17659;DHT22;8948;51.534;8.262;2023-04-01T03:51:21;10.00;74.50
17659;DHT22;8948;51.534;8.262;2023-04-01T03:56:22;10.00;74.60
17659;DHT22;8948;51.534;8.262;2023-04-01T04:01:23;9.90;74.70
17659;DHT22;8948;51.534;8.262;2023-04-01T04:06:27;9.90;74.20
17659;DHT22;8948;51.534;8.262;2023-04-01T04:11:30;9.90;73.20
17659;DHT22;8948;51.534;8.262;2023-04-01T04:16:31;9.90;73.60
17659;DHT22;8948;51.534;8.262;2023-04-01T04:21:31;9.90;73.50
17659;DHT22;8948;51.534;8.262;2023-04-01T04:26:32;9.90;73.10
17659;DHT22;8948;51.534;8.262;2023-04-01T04:31:33;9.90;73.10
17659;DHT22;8948;51.534;8.262;2023-04-01T04:36:33;9.80;72.90
17659;DHT22;8948;51.534;8.262;2023-04-01T04:41:34;9.80;73.00
17659;DHT22;8948;51.534;8.262;2023-04-01T04:46:37;9.80;73.10
17659;DHT22;8948;51.534;8.262;2023-04-01T04:51:39;9.80;73.50
17659;DHT22;8948;51.534;8.262;2023-04-01T04:56:40;9.90;73.60
17659;DHT22;8948;51.534;8.262;2023-04-01T05:01:40;9.80;73.90
17659;DHT22;8948;51.534;8.262;2023-04-01T05:06:42;9.90;74.20
17659;DHT22;8948;51.534;8.262;2023-04-01T05:11:43;9.90;73.90
17659;DHT22;8948;51.534;8.262;2023-04-01T05:16:44;9.90;74.30
17659;DHT22;8948;51.534;8.262;2023-04-01T05:21:44;9.80;74.50
17659;DHT22;8948;51.534;8.262;2023-04-01T05:26:45;9.70;75.30
17659;DHT22;8948;51.534;8.262;2023-04-01T05:31:45;9.80;75.30
17659;DHT22;8948;51.534;8.262;2023-04-01T05:36:46;9.80;75.60
17659;DHT22;8948;51.534;8.262;2023-04-01T05:41:46;9.90;75.80
17659;DHT22;8948;51.534;8.262;2023-04-01T05:46:47;9.90;75.40
17659;DHT22;8948;51.534;8.262;2023-04-01T05:51:48;9.90;75.80
17659;DHT22;8948;51.534;8.262;2023-04-01T05:56:48;10.00;75.90
17659;DHT22;8948;51.534;8.262;2023-04-01T06:01:49;10.00;76.10
17659;DHT22;8948;51.534;8.262;2023-04-01T06:06:49;10.10;75.40
17659;DHT22;8948;51.534;8.262;2023-04-01T06:38:35;10.40;74.60
17659;DHT22;8948;51.534;8.262;2023-04-01T06:44:07;10.50;74.30
17659;DHT22;8948;51.534;8.262;2023-04-01T06:49:17;10.50;74.00
17659;DHT22;8948;51.534;8.262;2023-04-01T06:54:32;10.60;74.00
17659;DHT22;8948;51.534;8.262;2023-04-01T06:59:37;10.70;73.60
17659;DHT22;8948;51.534;8.262;2023-04-01T07:04:42;10.80;74.00
17659;DHT22;8948;51.534;8.262;2023-04-01T07:09:49;10.90;73.40
17659;DHT22;8948;51.534;8.262;2023-04-01T07:14:53;11.00;73.60
17659;DHT22;8948;51.534;8.262;2023-04-01T07:20:23;11.00;73.60
17659;DHT22;8948;51.534;8.262;2023-04-01T07:25:55;11.10;72.50
17659;DHT22;8948;51.534;8.262;2023-04-01T07:36:14;11.20;72.90
17659;DHT22;8948;51.534;8.262;2023-04-01T07:41:38;11.30;72.80
17659;DHT22;8948;51.534;8.262;2023-04-01T07:52:37;11.50;72.50
17659;DHT22;8948;51.534;8.262;2023-04-01T07:58:10;11.60;73.00
17659;DHT22;8948;51.534;8.262;2023-04-01T08:09:00;11.70;72.80
17659;DHT22;8948;51.534;8.262;2023-04-01T08:14:21;11.80;72.10
17659;DHT22;8948;51.534;8.262;2023-04-01T08:25:05;11.90;72.00
17659;DHT22;8948;51.534;8.262;2023-04-01T08:35:55;11.80;73.20
17659;DHT22;8948;51.534;8.262;2023-04-01T09:40:01;12.00;73.10
17659;DHT22;8948;51.534;8.262;2023-04-01T09:50:27;12.10;73.90
17659;DHT22;8948;51.534;8.262;2023-04-01T10:07:11;12.30;73.30
17659;DHT22;8948;51.534;8.262;2023-04-01T10:33:10;13.00;72.40
17659;DHT22;8948;51.534;8.262;2023-04-01T10:50:05;12.60;72.80
17659;DHT22;8948;51.534;8.262;2023-04-01T10:55:35;12.40;73.70
17659;DHT22;8948;51.534;8.262;2023-04-01T11:00:57;12.20;74.10
17659;DHT22;8948;51.534;8.262;2023-04-01T11:06:12;12.10;74.20
17659;DHT22;8948;51.534;8.262;2023-04-01T11:11:34;12.20;74.60
17659;DHT22;8948;51.534;8.262;2023-04-01T11:38:00;12.50;74.40
17659;DHT22;8948;51.534;8.262;2023-04-01T11:54:03;12.60;74.20
17659;DHT22;8948;51.534;8.262;2023-04-01T12:25:36;12.30;75.70
17659;DHT22;8948;51.534;8.262;2023-04-01T12:47:01;13.00;73.20
17659;DHT22;8948;51.534;8.262;2023-04-01T12:52:15;12.70;74.00
17659;DHT22;8948;51.534;8.262;2023-04-01T12:57:42;12.50;74.30
17659;DHT22;8948;51.534;8.262;2023-04-01T13:03:12;12.50;74.60
17659;DHT22;8948;51.534;8.262;2023-04-01T13:08:37;12.50;74.60
17659;DHT22;8948;51.534;8.262;2023-04-01T13:19:40;12.60;74.70
17659;DHT22;8948;51.534;8.262;2023-04-01T13:41:30;12.60;74.20
17659;DHT22;8948;51.534;8.262;2023-04-01T13:57:52;12.30;74.70
17659;DHT22;8948;51.534;8.262;2023-04-01T14:14:08;12.40;74.90
17659;DHT22;8948;51.534;8.262;2023-04-01T14:41:50;12.30;75.30
17659;DHT22;8948;51.534;8.262;2023-04-01T14:52:28;12.20;76.40
17659;DHT22;8948;51.534;8.262;2023-04-01T14:57:31;12.10;75.60
17659;DHT22;8948;51.534;8.262;2023-04-01T15:24:07;12.10;75.50
17659;DHT22;8948;51.534;8.262;2023-04-01T15:34:37;12.10;75.90
17659;DHT22;8948;51.534;8.262;2023-04-01T15:40:22;11.90;76.10
17659;DHT22;8948;51.534;8.262;2023-04-01T15:50:34;11.70;76.50
17659;DHT22;8948;51.534;8.262;2023-04-01T16:00:57;11.80;76.80
17659;DHT22;8948;51.534;8.262;2023-04-01T16:11:39;11.80;76.00
17659;DHT22;8948;51.534;8.262;2023-04-01T16:17:00;11.70;76.50
17659;DHT22;8948;51.534;8.262;2023-04-01T16:22:17;11.70;75.80
17659;DHT22;8948;51.534;8.262;2023-04-01T16:32:50;11.70;76.30
17659;DHT22;8948;51.534;8.262;2023-04-01T16:38:05;11.80;75.90
17659;DHT22;8948;51.534;8.262;2023-04-01T16:48:13;11.80;75.70
17659;DHT22;8948;51.534;8.262;2023-04-01T16:53:16;11.90;75.60
17659;DHT22;8948;51.534;8.262;2023-04-01T16:58:26;11.90;75.60
17659;DHT22;8948;51.534;8.262;2023-04-01T17:03:41;11.80;75.50
17659;DHT22;8948;51.534;8.262;2023-04-01T17:09:01;11.80;75.80
17659;DHT22;8948;51.534;8.262;2023-04-01T17:14:29;11.70;75.80
17659;DHT22;8948;51.534;8.262;2023-04-01T17:30:48;11.80;76.50
17659;DHT22;8948;51.534;8.262;2023-04-01T17:41:34;11.70;77.00
17659;DHT22;8948;51.534;8.262;2023-04-01T17:57:46;11.80;77.00
17659;DHT22;8948;51.534;8.262;2023-04-01T18:13:54;11.60;78.00
17659;DHT22;8948;51.534;8.262;2023-04-01T18:19:13;11.50;77.60
17659;DHT22;8948;51.534;8.262;2023-04-01T18:29:37;11.50;77.70
17659;DHT22;8948;51.534;8.262;2023-04-01T18:34:52;11.50;77.70
17659;DHT22;8948;51.534;8.262;2023-04-01T18:40:03;11.50;77.60
17659;DHT22;8948;51.534;8.262;2023-04-01T18:45:33;11.50;77.80
17659;DHT22;8948;51.534;8.262;2023-04-01T18:50:57;11.50;77.60
17659;DHT22;8948;51.534;8.262;2023-04-01T18:56:05;11.60;77.10
17659;DHT22;8948;51.534;8.262;2023-04-01T19:01:17;11.60;77.60
17659;DHT22;8948;51.534;8.262;2023-04-01T19:06:26;11.60;77.30
17659;DHT22;8948;51.534;8.262;2023-04-01T19:11:38;11.60;76.90
17659;DHT22;8948;51.534;8.262;2023-04-01T19:28:20;11.60;77.40
17659;DHT22;8948;51.534;8.262;2023-04-01T19:33:32;11.60;77.80
17659;DHT22;8948;51.534;8.262;2023-04-01T19:38:40;11.60;77.30
17659;DHT22;8948;51.534;8.262;2023-04-01T19:49:45;11.60;77.70
17659;DHT22;8948;51.534;8.262;2023-04-01T20:12:17;11.50;77.80
17659;DHT22;8948;51.534;8.262;2023-04-01T20:22:28;11.50;78.00
17659;DHT22;8948;51.534;8.262;2023-04-01T20:27:39;11.50;77.60
17659;DHT22;8948;51.534;8.262;2023-04-01T21:10:41;11.00;80.10
17659;DHT22;8948;51.534;8.262;2023-04-01T21:15:48;11.10;79.40
17659;DHT22;8948;51.534;8.262;2023-04-01T21:21:11;10.90;78.40
17659;DHT22;8948;51.534;8.262;2023-04-01T21:31:53;10.50;79.20
17659;DHT22;8948;51.534;8.262;2023-04-01T21:37:49;10.30;79.10
17659;DHT22;8948;51.534;8.262;2023-04-01T22:10:09;9.50;78.50
17659;DHT22;8948;51.534;8.262;2023-04-01T22:15:43;9.50;78.30
17659;DHT22;8948;51.534;8.262;2023-04-01T22:20:53;9.30;78.70
17659;DHT22;8948;51.534;8.262;2023-04-01T22:31:05;9.30;78.10
17659;DHT22;8948;51.534;8.262;2023-04-01T22:47:17;9.20;77.90
17659;DHT22;8948;51.534;8.262;2023-04-01T22:52:33;9.00;78.00
17659;DHT22;8948;51.534;8.262;2023-04-01T23:13:49;8.70;78.00
17659;DHT22;8948;51.534;8.262;2023-04-01T23:19:16;8.60;77.90
17659;DHT22;8948;51.534;8.262;2023-04-01T23:24:33;8.50;78.30
17659;DHT22;8948;51.534;8.262;2023-04-01T23:29:37;8.40;78.80
17659;DHT22;8948;51.534;8.262;2023-04-01T23:34:47;8.50;78.50
17659;DHT22;8948;51.534;8.262;2023-04-01T23:39:58;8.60;78.10
17659;DHT22;8948;51.534;8.262;2023-04-01T23:45:15;8.50;78.30
17659;DHT22;8948;51.534;8.262;2023-04-01T23:50:23;8.60;77.50
17659;DHT22;8948;51.534;8.262;2023-04-01T23:55:32;8.40;77.90
